createdAt,value
2023-02-02T00:01:35.703Z,2.63
2023-02-02T00:04:04.121Z,1.55
2023-02-02T00:06:32.977Z,2.33
2023-02-02T00:09:04.279Z,2.17
2023-02-02T00:11:32.656Z,1.35
2023-02-02T00:14:01.961Z,2.03
2023-02-02T00:16:40.663Z,2.87
2023-02-02T00:19:11.189Z,2.53
2023-02-02T00:21:39.820Z,2.70
2023-02-02T00:24:10.802Z,2.88
2023-02-02T00:26:39.878Z,2.08
2023-02-02T00:29:09.740Z,1.63
2023-02-02T00:31:38.149Z,2.58
2023-02-02T00:34:06.566Z,3.10
2023-02-02T00:36:35.017Z,1.52
2023-02-02T00:39:03.489Z,2.17
2023-02-02T00:41:33.004Z,2.63
2023-02-02T00:44:19.115Z,2.58
2023-02-02T00:46:47.548Z,2.20
2023-02-02T00:49:15.936Z,2.47
2023-02-02T00:51:44.350Z,2.55
2023-02-02T00:54:14.280Z,1.20
2023-02-02T00:56:44.231Z,3.17
2023-02-02T00:59:12.615Z,3.22
2023-02-02T01:01:41.039Z,2.72
2023-02-02T01:04:09.591Z,2.47
2023-02-02T01:06:38.102Z,2.15
2023-02-02T01:09:06.647Z,2.35
2023-02-02T01:11:35.080Z,2.13
2023-02-02T01:14:04.825Z,2.95
2023-02-02T01:16:33.322Z,2.72
2023-02-02T01:19:01.819Z,2.67
2023-02-02T01:21:30.259Z,1.85
2023-02-02T01:23:58.641Z,2.80
2023-02-02T01:26:27.113Z,2.75
2023-02-02T01:28:55.518Z,1.45
2023-02-02T01:31:25.233Z,2.60
2023-02-02T01:33:53.865Z,2.55
2023-02-02T01:36:24.351Z,2.63
2023-02-02T01:38:52.769Z,2.08
2023-02-02T01:41:22.750Z,2.22
2023-02-02T01:48:55.023Z,1.42
2023-02-02T01:51:26.027Z,2.65
2023-02-02T01:53:57.531Z,1.83
2023-02-02T01:56:33.551Z,2.15
2023-02-02T01:59:02.518Z,2.58
2023-02-02T02:01:30.978Z,2.20
2023-02-02T02:04:00.628Z,2.90
2023-02-02T02:06:30.102Z,2.03
2023-02-02T02:09:03.417Z,1.50
2023-02-02T02:11:33.069Z,2.33
2023-02-02T02:14:20.937Z,1.77
2023-02-02T02:17:11.671Z,1.60
2023-02-02T02:20:40.480Z,2.13
2023-02-02T02:24:04.388Z,1.98
2023-02-02T02:26:52.793Z,1.55
2023-02-02T02:29:33.210Z,2.53
2023-02-02T02:32:12.356Z,2.13
2023-02-02T02:34:55.033Z,2.17
2023-02-02T02:37:32.551Z,1.55
2023-02-02T02:40:06.432Z,2.85
2023-02-02T02:42:39.506Z,1.95
2023-02-02T02:45:10.693Z,2.92
2023-02-02T02:47:41.976Z,2.63
2023-02-02T02:50:11.596Z,1.85
2023-02-02T02:52:40.147Z,1.88
2023-02-02T02:55:10.830Z,1.92
2023-02-02T02:57:52.391Z,2.65
2023-02-02T03:00:28.856Z,1.48
2023-02-02T03:03:05.357Z,2.55
2023-02-02T03:05:37.865Z,2.20
2023-02-02T03:08:10.160Z,1.73
2023-02-02T03:10:40.753Z,3.00
2023-02-02T03:13:11.456Z,1.77
2023-02-02T03:15:42.299Z,2.42
2023-02-02T03:18:12.699Z,1.20
2023-02-02T03:20:41.360Z,2.10
2023-02-02T03:23:09.752Z,2.75
2023-02-02T03:25:38.245Z,2.25
2023-02-02T03:28:07.456Z,2.55
2023-02-02T03:30:36.174Z,3.20
2023-02-02T03:33:04.843Z,1.48
2023-02-02T03:35:34.490Z,1.98
2023-02-02T03:38:03.803Z,2.08
2023-02-02T03:40:32.292Z,2.57
2023-02-02T03:43:00.786Z,1.83
2023-02-02T03:45:29.472Z,2.53
2023-02-02T03:47:57.911Z,1.95
2023-02-02T03:50:26.364Z,1.20
2023-02-02T03:52:56.590Z,1.55
2023-02-02T03:55:25.435Z,2.00
2023-02-02T03:57:54.188Z,3.45
2023-02-02T04:00:22.983Z,1.83
2023-02-02T04:02:51.498Z,1.92
2023-02-02T04:05:19.960Z,3.40
2023-02-02T04:07:49.164Z,1.70
2023-02-02T04:10:19.543Z,2.00
2023-02-02T04:12:47.965Z,3.45
2023-02-02T04:15:16.454Z,2.22
2023-02-02T04:17:45.033Z,3.13
2023-02-02T04:20:13.566Z,1.85
2023-02-02T04:22:41.959Z,2.33
2023-02-02T04:25:10.693Z,2.08
2023-02-02T04:27:40.477Z,2.00
2023-02-02T04:30:10.121Z,2.50
2023-02-02T04:32:38.516Z,2.75
2023-02-02T04:35:07.200Z,1.83
2023-02-02T04:37:35.599Z,1.95
2023-02-02T04:40:04.010Z,2.00
2023-02-02T04:42:34.397Z,3.33
2023-02-02T04:45:04.003Z,2.92
2023-02-02T04:47:32.389Z,2.15
2023-02-02T04:50:00.807Z,2.00
2023-02-02T04:52:30.200Z,2.13
2023-02-02T04:54:58.607Z,2.88
2023-02-02T04:57:26.997Z,1.60
2023-02-02T04:59:55.420Z,2.05
2023-02-02T05:02:25.033Z,3.38
2023-02-02T05:04:53.455Z,2.10
2023-02-02T05:07:21.839Z,2.00
2023-02-02T05:09:50.244Z,2.50
2023-02-02T05:12:18.626Z,2.35
2023-02-02T05:14:47.005Z,1.95
2023-02-02T05:17:15.436Z,3.25
2023-02-02T05:19:44.939Z,1.40
2023-02-02T05:22:13.344Z,0.88
2023-02-02T05:24:41.733Z,2.33
2023-02-02T05:27:10.160Z,2.45
2023-02-02T05:29:38.559Z,1.13
2023-02-02T05:32:07.109Z,2.50
2023-02-02T05:34:35.534Z,3.42
2023-02-02T05:37:05.346Z,1.52
2023-02-02T05:39:33.747Z,2.17
2023-02-02T05:42:02.161Z,1.70
2023-02-02T05:44:30.554Z,2.17
2023-02-02T05:46:58.988Z,3.80
2023-02-02T05:49:27.600Z,3.55
2023-02-02T05:51:58.180Z,4.50
2023-02-02T05:54:27.807Z,2.22
2023-02-02T05:56:57.096Z,4.28
2023-02-02T05:59:25.716Z,3.40
2023-02-02T06:01:54.443Z,4.60
2023-02-02T06:04:23.056Z,6.72
2023-02-02T06:06:51.480Z,6.80
2023-02-02T06:09:19.881Z,7.30
2023-02-02T06:11:49.437Z,5.55
2023-02-02T06:14:17.809Z,6.15
2023-02-02T06:16:46.210Z,3.60
2023-02-02T06:19:14.598Z,5.03
2023-02-02T06:21:43.007Z,4.10
2023-02-02T06:24:11.401Z,3.95
2023-02-02T06:26:40.006Z,3.15
2023-02-02T06:29:12.937Z,5.07
2023-02-02T06:31:41.469Z,3.65
2023-02-02T06:34:13.622Z,3.03
2023-02-02T06:36:42.703Z,4.72
2023-02-02T06:39:10.987Z,4.88
2023-02-02T06:41:40.508Z,4.75
2023-02-02T06:44:10.229Z,4.55
2023-02-02T06:46:38.716Z,4.82
2023-02-02T06:49:07.158Z,3.13
2023-02-02T06:51:35.587Z,5.20
2023-02-02T06:54:04.320Z,3.53
2023-02-02T06:56:32.748Z,3.65
2023-02-02T06:59:01.140Z,4.47
2023-02-02T07:01:30.825Z,3.92
2023-02-02T07:03:59.407Z,3.53
2023-02-02T07:06:28.765Z,2.28
2023-02-02T07:09:03.082Z,3.33
2023-02-02T07:11:34.449Z,4.65
2023-02-02T07:14:04.270Z,4.32
2023-02-02T07:16:34.064Z,2.78
2023-02-02T07:19:02.475Z,4.00
2023-02-02T07:21:35.756Z,2.53
2023-02-02T07:24:04.754Z,2.63
2023-02-02T07:26:33.199Z,3.53
2023-02-02T07:29:01.621Z,2.22
2023-02-02T07:31:30.313Z,2.42
2023-02-02T07:34:00.025Z,4.22
2023-02-02T07:36:28.598Z,1.73
2023-02-02T07:38:57.587Z,1.83
2023-02-02T07:41:26.316Z,2.17
2023-02-02T07:43:54.747Z,2.78
2023-02-02T07:46:23.185Z,2.58
2023-02-02T07:48:54.833Z,2.22
2023-02-02T07:51:25.858Z,2.22
2023-02-02T07:53:55.404Z,3.40
2023-02-02T07:56:25.840Z,1.63
2023-02-02T07:58:55.632Z,1.88
2023-02-02T08:01:26.245Z,3.67
2023-02-02T08:03:55.937Z,2.42
2023-02-02T08:06:28.337Z,1.58
2023-02-02T08:08:56.829Z,3.03
2023-02-02T08:11:26.540Z,1.73
2023-02-02T08:13:56.152Z,2.05
2023-02-02T08:16:25.188Z,2.08
2023-02-02T08:18:54.072Z,2.92
2023-02-02T08:21:22.518Z,2.20
2023-02-02T08:23:54.018Z,2.08
2023-02-02T08:26:24.508Z,1.50
2023-02-02T08:28:54.266Z,3.10
2023-02-02T08:31:24.072Z,2.80
2023-02-02T08:33:54.024Z,2.38
2023-02-02T08:38:52.118Z,2.90
2023-02-02T08:43:49.357Z,2.13
2023-02-02T08:46:19.698Z,3.38
2023-02-02T08:48:48.394Z,1.02
2023-02-02T08:51:18.709Z,2.08
2023-02-02T08:53:47.539Z,2.10
2023-02-02T08:56:18.975Z,2.95
2023-02-02T08:58:48.582Z,2.15
2023-02-02T09:01:19.060Z,2.17
2023-02-02T09:03:48.074Z,3.05
2023-02-02T09:06:18.400Z,3.55
2023-02-02T09:08:47.434Z,2.58
2023-02-02T09:11:18.025Z,3.55
2023-02-02T09:13:48.801Z,4.97
2023-02-02T09:16:18.805Z,3.30
2023-02-02T09:21:17.825Z,2.38
2023-02-02T09:23:46.728Z,2.97
2023-02-02T09:26:18.198Z,2.72
2023-02-02T09:28:48.336Z,2.42
2023-02-02T09:31:17.226Z,2.92
2023-02-02T09:33:45.981Z,2.25
2023-02-02T09:36:15.595Z,1.90
2023-02-02T09:38:44.276Z,2.50
2023-02-02T09:41:35.942Z,2.42
2023-02-02T09:44:15.706Z,1.83
2023-02-02T09:46:56.023Z,3.30
2023-02-02T09:49:27.866Z,2.28
2023-02-02T09:52:00.891Z,2.03
2023-02-02T09:54:34.454Z,1.77
2023-02-02T09:57:04.825Z,2.38
2023-02-02T09:59:38.178Z,2.10
2023-02-02T10:02:14.073Z,2.53
2023-02-02T10:04:45.137Z,2.00
2023-02-02T10:07:18.752Z,1.63
2023-02-02T10:09:50.810Z,1.98
2023-02-02T10:12:30.949Z,3.15
2023-02-02T10:15:06.511Z,1.65
2023-02-02T10:17:41.971Z,2.30
2023-02-02T10:20:27.558Z,1.55
2023-02-02T10:23:00.705Z,2.65
2023-02-02T10:25:29.984Z,2.08
2023-02-02T10:28:05.533Z,1.87
2023-02-02T10:30:45.822Z,1.67
2023-02-02T10:33:22.124Z,0.80
2023-02-02T10:35:57.593Z,1.38
2023-02-02T10:38:36.729Z,2.35
2023-02-02T10:41:15.668Z,1.58
2023-02-02T10:44:17.454Z,0.65
2023-02-02T10:46:50.480Z,2.28
2023-02-02T10:49:25.311Z,1.65
2023-02-02T10:52:05.774Z,1.70
2023-02-02T10:54:57.315Z,2.33
2023-02-02T10:57:42.149Z,1.23
2023-02-02T11:00:16.560Z,0.93
2023-02-02T11:02:47.900Z,1.30
2023-02-02T11:05:37.822Z,1.00
2023-02-02T11:08:14.529Z,2.65
2023-02-02T11:10:44.358Z,0.85
2023-02-02T11:13:16.421Z,0.95
2023-02-02T11:15:44.875Z,1.98
2023-02-02T11:18:29.852Z,1.23
2023-02-02T11:20:59.434Z,2.53
2023-02-02T11:23:29.650Z,2.88
2023-02-02T11:26:05.359Z,1.70
2023-02-02T11:28:37.088Z,1.48
2023-02-02T11:31:05.770Z,1.65
2023-02-02T11:33:37.465Z,2.53
2023-02-02T11:36:07.586Z,1.08
2023-02-02T11:38:35.976Z,1.60
2023-02-02T11:41:09.163Z,1.10
2023-02-02T11:43:41.428Z,1.38
2023-02-02T11:46:20.808Z,1.42
2023-02-02T11:48:53.958Z,2.03
2023-02-02T11:51:25.922Z,1.23
2023-02-02T11:54:05.631Z,1.73
2023-02-02T11:56:36.340Z,2.03
2023-02-02T11:59:05.523Z,1.35
2023-02-02T12:01:36.107Z,1.43
2023-02-02T12:04:25.475Z,1.65
2023-02-02T12:06:53.922Z,1.58
2023-02-02T12:09:24.861Z,1.50
2023-02-02T12:12:02.343Z,0.88
2023-02-02T12:14:40.007Z,1.90
2023-02-02T12:17:19.891Z,1.23
2023-02-02T12:20:05.125Z,5.35
2023-02-02T12:22:41.291Z,5.13
2023-02-02T12:25:33.816Z,2.28
2023-02-02T12:28:10.523Z,3.10
2023-02-02T12:30:46.233Z,6.80
2023-02-02T12:33:25.257Z,2.20
2023-02-02T12:36:10.735Z,1.88
2023-02-02T12:38:58.324Z,3.03
2023-02-02T12:41:38.127Z,1.73
2023-02-02T12:44:17.825Z,2.22
2023-02-02T12:47:02.603Z,1.15
2023-02-02T12:50:02.814Z,2.80
2023-02-02T12:52:41.352Z,3.60
2023-02-02T12:55:19.486Z,1.77
2023-02-02T12:57:56.681Z,2.67
2023-02-02T13:00:39.914Z,1.48
2023-02-02T13:03:22.193Z,1.73
2023-02-02T13:06:00.088Z,1.52
2023-02-02T13:08:34.461Z,1.13
2023-02-02T13:11:27.917Z,3.67
2023-02-02T13:13:58.150Z,2.80
2023-02-02T13:16:27.424Z,1.40
2023-02-02T13:18:59.893Z,1.60
2023-02-02T13:21:30.691Z,1.20
2023-02-02T13:24:03.866Z,1.48
2023-02-02T13:26:38.790Z,1.45
2023-02-02T13:29:12.882Z,1.38
2023-02-02T13:31:46.787Z,1.52
2023-02-02T13:34:19.014Z,0.98
2023-02-02T13:36:52.132Z,6.93
2023-02-02T13:39:30.025Z,5.68
2023-02-02T13:41:58.470Z,4.38
2023-02-02T13:44:33.184Z,3.58
2023-02-02T13:47:06.580Z,3.53
2023-02-02T13:49:41.120Z,4.38
2023-02-02T13:52:27.739Z,3.33
2023-02-02T13:55:26.673Z,3.85
2023-02-02T13:58:17.288Z,2.80
2023-02-02T14:00:50.237Z,2.25
2023-02-02T14:03:38.776Z,2.53
2023-02-02T14:06:18.215Z,4.10
2023-02-02T14:08:53.637Z,4.32
2023-02-02T14:11:28.304Z,3.40
2023-02-02T14:14:16.717Z,3.60
2023-02-02T14:16:53.371Z,2.50
2023-02-02T14:19:53.579Z,2.80
2023-02-02T14:22:45.700Z,3.17
2023-02-02T14:25:56.469Z,2.08
2023-02-02T14:28:45.489Z,2.38
2023-02-02T14:31:41.932Z,2.35
2023-02-02T14:34:27.120Z,4.78
2023-02-02T14:37:06.973Z,2.55
2023-02-02T14:39:41.948Z,2.85
2023-02-02T14:42:41.147Z,3.42
2023-02-02T14:45:27.167Z,2.10
2023-02-02T14:47:58.899Z,2.67
2023-02-02T14:50:31.571Z,4.15
2023-02-02T14:53:04.758Z,2.42
2023-02-02T14:55:33.195Z,2.42
2023-02-02T14:58:04.378Z,4.20
2023-02-02T15:00:36.321Z,3.55
2023-02-02T15:03:34.157Z,1.65
2023-02-02T15:06:09.564Z,2.75
2023-02-02T15:08:38.117Z,2.33
2023-02-02T15:11:25.785Z,3.15
2023-02-02T15:14:15.829Z,2.22
2023-02-02T15:19:24.021Z,2.53
2023-02-02T15:21:55.786Z,2.28
2023-02-02T15:24:28.455Z,2.97
2023-02-02T15:27:00.054Z,2.08
2023-02-02T15:29:43.186Z,2.67
2023-02-02T15:32:17.806Z,3.40
2023-02-02T15:34:49.479Z,1.33
2023-02-02T15:37:21.643Z,2.08
2023-02-02T15:39:53.124Z,2.70
2023-02-02T15:42:43.240Z,2.47
2023-02-02T15:45:39.887Z,3.65
2023-02-02T15:48:19.668Z,2.88
2023-02-02T15:50:48.369Z,1.70
2023-02-02T15:53:21.396Z,3.33
2023-02-02T15:55:49.856Z,2.15
2023-02-02T15:58:33.204Z,2.03
2023-02-02T16:01:04.665Z,1.30
2023-02-02T16:03:44.229Z,1.73
2023-02-02T16:06:12.759Z,2.13
2023-02-02T16:08:42.012Z,1.95
2023-02-02T16:11:12.334Z,2.90
2023-02-02T16:13:42.019Z,2.70
2023-02-02T16:16:23.500Z,2.47
2023-02-02T16:19:06.000Z,2.30
2023-02-02T16:21:35.127Z,2.60
2023-02-02T16:24:05.193Z,1.67
2023-02-02T16:26:35.864Z,1.30
2023-02-02T16:29:04.463Z,1.95
2023-02-02T16:31:33.067Z,1.63
2023-02-02T16:34:02.721Z,2.08
2023-02-02T16:36:32.305Z,1.60
2023-02-02T16:39:01.383Z,2.63
2023-02-02T16:41:33.750Z,2.33
2023-02-02T16:44:20.635Z,3.75
2023-02-02T16:46:50.643Z,2.10
2023-02-02T16:52:07.923Z,6.80
2023-02-02T16:54:36.385Z,3.53
2023-02-02T16:57:06.239Z,2.85
2023-02-02T16:59:37.643Z,3.15
2023-02-02T17:02:21.017Z,3.00
2023-02-02T17:04:53.239Z,3.05
2023-02-02T17:07:23.539Z,2.90
2023-02-02T17:09:52.082Z,2.55
2023-02-02T17:12:33.627Z,2.85
2023-02-02T17:15:06.049Z,2.78
2023-02-02T17:17:34.706Z,2.72
2023-02-02T17:20:03.125Z,3.63
2023-02-02T17:22:41.798Z,3.67
2023-02-02T17:25:16.161Z,2.95
2023-02-02T17:27:45.210Z,3.63
2023-02-02T17:30:16.962Z,3.55
2023-02-02T17:32:45.342Z,2.92
2023-02-02T17:35:16.502Z,2.60
2023-02-02T17:37:46.058Z,3.08
2023-02-02T17:40:15.436Z,3.70
2023-02-02T17:42:44.767Z,3.25
2023-02-02T17:45:17.481Z,2.92
2023-02-02T17:47:45.941Z,3.80
2023-02-02T17:50:14.342Z,6.35
2023-02-02T17:52:42.773Z,3.25
2023-02-02T17:55:19.075Z,2.55
2023-02-02T17:57:47.563Z,3.10
2023-02-02T18:00:16.784Z,2.53
2023-02-02T18:02:45.544Z,2.83
2023-02-02T18:05:15.496Z,2.63
2023-02-02T18:10:15.987Z,2.33
2023-02-02T18:12:44.454Z,4.15
2023-02-02T18:15:14.503Z,4.47
2023-02-02T18:20:13.306Z,3.05
2023-02-02T18:22:44.085Z,4.82
2023-02-02T18:25:13.648Z,4.07
2023-02-02T18:27:41.936Z,4.05
2023-02-02T18:30:11.805Z,4.43
2023-02-02T18:32:41.277Z,4.07
2023-02-02T18:35:10.295Z,3.20
2023-02-02T18:37:38.794Z,5.63
2023-02-02T18:40:08.149Z,3.08
2023-02-02T18:42:38.217Z,1.73
2023-02-02T18:45:07.488Z,2.67
2023-02-02T18:47:35.899Z,5.53
2023-02-02T18:50:04.328Z,2.50
2023-02-02T18:52:33.879Z,3.05
2023-02-02T18:55:02.377Z,3.72
2023-02-02T18:57:31.477Z,3.00
2023-02-02T19:00:01.147Z,2.37
2023-02-02T19:02:29.559Z,2.20
2023-02-02T19:05:15.267Z,4.88
2023-02-02T19:07:55.612Z,3.90
2023-02-02T19:10:24.410Z,3.38
2023-02-02T19:12:56.736Z,3.53
2023-02-02T19:15:26.926Z,3.97
2023-02-02T19:17:56.179Z,3.92
2023-02-02T19:20:28.690Z,8.13
2023-02-02T19:23:03.854Z,8.57
2023-02-02T19:25:32.252Z,9.07
2023-02-02T19:28:02.400Z,8.95
2023-02-02T19:30:32.016Z,8.45
2023-02-02T19:33:00.478Z,8.32
2023-02-02T19:35:29.437Z,7.72
2023-02-02T19:38:01.417Z,7.00
2023-02-02T19:40:29.832Z,6.47
2023-02-02T19:43:06.446Z,5.72
2023-02-02T19:45:36.412Z,6.30
2023-02-02T19:50:41.878Z,5.25
2023-02-02T19:53:17.488Z,4.63
2023-02-02T19:55:45.925Z,4.93
2023-02-02T19:58:18.804Z,3.80
2023-02-02T20:00:49.271Z,3.40
2023-02-02T20:03:20.073Z,2.95
2023-02-02T20:05:49.606Z,3.05
2023-02-02T20:08:25.176Z,3.60
2023-02-02T20:10:53.893Z,2.83
2023-02-02T20:13:23.534Z,2.50
2023-02-02T20:16:03.717Z,1.92
2023-02-02T20:18:43.030Z,1.88
2023-02-02T20:21:21.116Z,1.90
2023-02-02T20:23:49.642Z,1.92
2023-02-02T20:26:28.533Z,1.90
2023-02-02T20:28:58.864Z,2.47
2023-02-02T20:31:37.189Z,1.30
2023-02-02T20:34:21.336Z,2.20
2023-02-02T20:36:50.085Z,1.58
2023-02-02T20:39:27.477Z,2.22
2023-02-02T20:41:57.307Z,2.17
2023-02-02T20:44:25.965Z,2.63
2023-02-02T20:46:57.434Z,1.52
2023-02-02T20:49:27.017Z,2.47
2023-02-02T20:51:56.241Z,1.30
2023-02-02T20:54:24.715Z,1.67
2023-02-02T20:56:54.357Z,2.03
2023-02-02T20:59:22.870Z,2.25
2023-02-02T21:01:51.281Z,2.20
2023-02-02T21:04:22.004Z,1.80
2023-02-02T21:06:51.087Z,1.60
2023-02-02T21:09:19.742Z,1.90
2023-02-02T21:11:48.137Z,1.50
2023-02-02T21:14:16.709Z,1.95
2023-02-02T21:16:45.109Z,2.15
2023-02-02T21:19:13.556Z,2.50
2023-02-02T21:21:43.121Z,2.15
2023-02-02T21:24:11.555Z,2.05
2023-02-02T21:26:39.965Z,2.30
2023-02-02T21:29:08.438Z,1.83
2023-02-02T21:31:39.804Z,2.70
2023-02-02T21:34:09.038Z,2.00
2023-02-02T21:36:38.647Z,3.47
2023-02-02T21:39:19.549Z,2.83
2023-02-02T21:41:48.032Z,2.53
2023-02-02T21:44:18.382Z,2.28
2023-02-02T21:46:48.268Z,2.20
2023-02-02T21:49:22.835Z,3.60
2023-02-02T21:51:51.500Z,3.55
2023-02-02T21:54:24.813Z,3.47
2023-02-02T21:56:53.466Z,2.70
2023-02-02T21:59:23.083Z,2.60
2023-02-02T22:01:52.626Z,3.58
2023-02-02T22:04:24.303Z,4.00
2023-02-02T22:06:54.045Z,3.65
2023-02-02T22:09:25.694Z,3.47
2023-02-02T22:11:59.135Z,2.53
2023-02-02T22:14:29.153Z,2.95
2023-02-02T22:19:29.922Z,3.95
2023-02-02T22:22:14.524Z,2.95
2023-02-02T22:24:44.985Z,3.05
2023-02-02T22:27:21.882Z,3.15
2023-02-02T22:29:50.963Z,4.05
2023-02-02T22:32:19.336Z,3.28
2023-02-02T22:34:47.750Z,3.97
2023-02-02T22:37:16.129Z,3.50
2023-02-02T22:39:45.888Z,3.30
2023-02-02T22:42:14.278Z,3.47
2023-02-02T22:44:44.056Z,2.28
2023-02-02T22:47:12.424Z,3.67
2023-02-02T22:49:40.832Z,5.20
2023-02-02T22:52:09.266Z,2.95
2023-02-02T22:54:37.673Z,2.78
2023-02-02T22:57:07.233Z,3.58
2023-02-02T22:59:35.660Z,6.07
2023-02-02T23:02:04.058Z,6.40
2023-02-02T23:04:32.470Z,7.03
2023-02-02T23:07:00.869Z,5.00
2023-02-02T23:09:29.249Z,5.38
2023-02-02T23:11:57.654Z,4.03
2023-02-02T23:14:27.169Z,4.30
2023-02-02T23:16:55.580Z,4.32
2023-02-02T23:19:23.976Z,4.70
2023-02-02T23:21:52.558Z,4.82
2023-02-02T23:24:20.936Z,4.60
2023-02-02T23:26:49.367Z,4.53
2023-02-02T23:29:17.758Z,3.97
2023-02-02T23:31:47.442Z,4.90
2023-02-02T23:34:15.881Z,5.22
2023-02-02T23:36:44.287Z,4.65
2023-02-02T23:39:12.695Z,4.88
2023-02-02T23:41:41.227Z,5.43
2023-02-02T23:44:09.603Z,3.60
2023-02-02T23:46:38.301Z,4.88
2023-02-02T23:49:07.911Z,4.95
2023-02-02T23:51:36.384Z,5.38
2023-02-02T23:54:04.939Z,3.78
2023-02-02T23:56:33.438Z,2.85
2023-02-02T23:59:01.827Z,2.78
